sensor_id;sensor_type;location;lat;lon;timestamp;temperature;humidity
70076;DHT22;63241;51.056;3.698;2023-01-09T17:05:16;8.10;99.90
70076;DHT22;63241;51.056;3.698;2023-01-09T17:07:44;7.90;99.90
70076;DHT22;63241;51.056;3.698;2023-01-09T17:10:20;7.90;99.90
70076;DHT22;63241;51.056;3.698;2023-01-09T17:12:48;7.80;99.90
70076;DHT22;63241;51.056;3.698;2023-01-09T17:18:37;7.80;99.90
70076;DHT22;63241;51.056;3.698;2023-01-09T17:21:08;7.80;99.90
70076;DHT22;63241;51.056;3.698;2023-01-09T17:23:35;7.80;99.90
70076;DHT22;63241;51.056;3.698;2023-01-09T17:26:03;7.80;99.90
70076;DHT22;63241;51.056;3.698;2023-01-09T17:32:34;7.90;99.90
70076;DHT22;63241;51.056;3.698;2023-01-09T17:35:02;7.90;99.90
70076;DHT22;63241;51.056;3.698;2023-01-09T17:37:30;8.00;99.90
70076;DHT22;63241;51.056;3.698;2023-01-09T17:39:58;8.10;99.90
70076;DHT22;63241;51.056;3.698;2023-01-09T17:42:57;8.10;99.90
70076;DHT22;63241;51.056;3.698;2023-01-09T17:45:41;8.10;99.90
70076;DHT22;63241;51.056;3.698;2023-01-09T17:48:12;8.10;99.90
70076;DHT22;63241;51.056;3.698;2023-01-09T17:50:38;8.20;99.90
70076;DHT22;63241;51.056;3.698;2023-01-09T17:53:06;8.20;99.90
70076;DHT22;63241;51.056;3.698;2023-01-09T17:59:20;8.30;99.90
70076;DHT22;63241;51.056;3.698;2023-01-09T18:01:48;8.20;99.90
70076;DHT22;63241;51.056;3.698;2023-01-09T18:04:16;8.20;99.90
70076;DHT22;63241;51.056;3.698;2023-01-09T18:06:44;8.10;99.90
70076;DHT22;63241;51.056;3.698;2023-01-09T18:09:27;8.10;99.90
70076;DHT22;63241;51.056;3.698;2023-01-09T18:12:02;8.00;99.90
70076;DHT22;63241;51.056;3.698;2023-01-09T18:14:30;8.00;99.90
70076;DHT22;63241;51.056;3.698;2023-01-09T18:16:58;7.90;99.90
70076;DHT22;63241;51.056;3.698;2023-01-09T18:19:25;7.90;99.90
70076;DHT22;63241;51.056;3.698;2023-01-09T18:21:53;7.90;99.90
70076;DHT22;63241;51.056;3.698;2023-01-09T18:28:01;7.90;99.90
70076;DHT22;63241;51.056;3.698;2023-01-09T18:30:29;7.90;99.90
70076;DHT22;63241;51.056;3.698;2023-01-09T18:32:57;7.80;99.90
70076;DHT22;63241;51.056;3.698;2023-01-09T18:35:24;7.80;99.90
70076;DHT22;63241;51.056;3.698;2023-01-09T18:41:11;7.80;99.90
70076;DHT22;63241;51.056;3.698;2023-01-09T18:43:39;7.80;99.90
70076;DHT22;63241;51.056;3.698;2023-01-09T18:46:07;7.70;99.90
70076;DHT22;63241;51.056;3.698;2023-01-09T18:48:35;7.70;99.90
70076;DHT22;63241;51.056;3.698;2023-01-09T18:51:21;7.60;99.90
70076;DHT22;63241;51.056;3.698;2023-01-09T18:54:01;7.60;99.90
70076;DHT22;63241;51.056;3.698;2023-01-09T18:56:29;7.60;99.90
70076;DHT22;63241;51.056;3.698;2023-01-09T18:58:57;7.60;99.90
70076;DHT22;63241;51.056;3.698;2023-01-09T19:01:27;7.50;99.90
70076;DHT22;63241;51.056;3.698;2023-01-09T19:07:15;7.30;99.90
70076;DHT22;63241;51.056;3.698;2023-01-09T19:09:45;7.20;99.90
70076;DHT22;63241;51.056;3.698;2023-01-09T19:12:13;7.10;99.90
70076;DHT22;63241;51.056;3.698;2023-01-09T19:14:41;7.00;99.90
70076;DHT22;63241;51.056;3.698;2023-01-09T19:38:57;6.70;99.90
70076;DHT22;63241;51.056;3.698;2023-01-09T19:41:27;6.70;99.90
70076;DHT22;63241;51.056;3.698;2023-01-09T19:43:55;6.80;99.90
70076;DHT22;63241;51.056;3.698;2023-01-09T19:49:57;6.90;99.90
70076;DHT22;63241;51.056;3.698;2023-01-09T19:52:25;7.00;99.90
70076;DHT22;63241;51.056;3.698;2023-01-09T19:54:53;7.10;99.90
70076;DHT22;63241;51.056;3.698;2023-01-09T19:57:21;7.10;99.90
70076;DHT22;63241;51.056;3.698;2023-01-09T20:00:11;7.20;99.90
70076;DHT22;63241;51.056;3.698;2023-01-09T20:02:59;7.20;99.90
70076;DHT22;63241;51.056;3.698;2023-01-09T20:05:27;7.20;99.90
70076;DHT22;63241;51.056;3.698;2023-01-09T20:07:55;7.20;99.90
70076;DHT22;63241;51.056;3.698;2023-01-09T20:10:23;7.20;99.90
70076;DHT22;63241;51.056;3.698;2023-01-09T20:13:17;7.20;99.90
70076;DHT22;63241;51.056;3.698;2023-01-09T20:16:12;7.30;99.90
70076;DHT22;63241;51.056;3.698;2023-01-09T20:18:40;7.30;99.90
70076;DHT22;63241;51.056;3.698;2023-01-09T20:21:08;7.30;99.90
70076;DHT22;63241;51.056;3.698;2023-01-09T20:23:36;7.20;99.90
70076;DHT22;63241;51.056;3.698;2023-01-09T20:29:40;7.00;99.90
70076;DHT22;63241;51.056;3.698;2023-01-09T20:32:07;7.00;99.90
70076;DHT22;63241;51.056;3.698;2023-01-09T20:34:36;7.10;99.90
70076;DHT22;63241;51.056;3.698;2023-01-09T20:37:03;7.10;99.90
70076;DHT22;63241;51.056;3.698;2023-01-09T20:42:56;7.20;99.90
70076;DHT22;63241;51.056;3.698;2023-01-09T20:45:24;7.30;99.90
70076;DHT22;63241;51.056;3.698;2023-01-09T20:47:52;7.40;99.90
70076;DHT22;63241;51.056;3.698;2023-01-09T20:50:21;7.30;99.90
70076;DHT22;63241;51.056;3.698;2023-01-09T20:56:15;7.30;99.90
70076;DHT22;63241;51.056;3.698;2023-01-09T20:58:48;7.20;99.90
70076;DHT22;63241;51.056;3.698;2023-01-09T21:01:16;7.00;99.90
70076;DHT22;63241;51.056;3.698;2023-01-09T21:03:44;7.00;99.90
70076;DHT22;63241;51.056;3.698;2023-01-09T21:06:23;6.80;99.90
70076;DHT22;63241;51.056;3.698;2023-01-09T21:12:01;6.60;99.90
70076;DHT22;63241;51.056;3.698;2023-01-09T21:14:30;6.50;99.90
70076;DHT22;63241;51.056;3.698;2023-01-09T21:16:58;6.40;99.90
70076;DHT22;63241;51.056;3.698;2023-01-09T21:19:32;6.40;99.90
70076;DHT22;63241;51.056;3.698;2023-01-09T21:25:39;6.20;99.90
70076;DHT22;63241;51.056;3.698;2023-01-09T21:28:09;6.30;99.90
70076;DHT22;63241;51.056;3.698;2023-01-09T21:30:36;6.40;99.90
70076;DHT22;63241;51.056;3.698;2023-01-09T21:33:04;6.40;99.90
70076;DHT22;63241;51.056;3.698;2023-01-09T21:35:57;6.50;99.90
70076;DHT22;63241;51.056;3.698;2023-01-09T21:38:32;6.50;99.90
70076;DHT22;63241;51.056;3.698;2023-01-09T21:41:00;6.50;99.90
70076;DHT22;63241;51.056;3.698;2023-01-09T21:43:30;6.40;99.90
70076;DHT22;63241;51.056;3.698;2023-01-09T21:46:18;6.30;99.90
70076;DHT22;63241;51.056;3.698;2023-01-09T21:52:19;6.10;99.90
70076;DHT22;63241;51.056;3.698;2023-01-09T21:54:47;6.00;99.90
70076;DHT22;63241;51.056;3.698;2023-01-09T21:57:15;6.00;99.90
70076;DHT22;63241;51.056;3.698;2023-01-09T21:59:42;6.00;99.90
70076;DHT22;63241;51.056;3.698;2023-01-09T22:02:43;6.10;99.90
70076;DHT22;63241;51.056;3.698;2023-01-09T22:05:18;6.20;99.90
70076;DHT22;63241;51.056;3.698;2023-01-09T22:07:46;6.40;99.90
70076;DHT22;63241;51.056;3.698;2023-01-09T22:10:14;6.50;99.90
70076;DHT22;63241;51.056;3.698;2023-01-09T22:12:41;6.50;99.90
70076;DHT22;63241;51.056;3.698;2023-01-09T22:15:32;6.40;99.90
70076;DHT22;63241;51.056;3.698;2023-01-09T22:18:06;6.40;99.90
70076;DHT22;63241;51.056;3.698;2023-01-09T22:32:01;5.90;99.90
70076;DHT22;63241;51.056;3.698;2023-01-09T22:34:29;5.90;99.90
70076;DHT22;63241;51.056;3.698;2023-01-09T22:36:57;6.00;99.90
70076;DHT22;63241;51.056;3.698;2023-01-09T22:39:25;6.10;99.90
70076;DHT22;63241;51.056;3.698;2023-01-09T22:42:05;6.10;99.90
70076;DHT22;63241;51.056;3.698;2023-01-09T22:44:54;6.00;99.90
70076;DHT22;63241;51.056;3.698;2023-01-09T22:47:23;6.00;99.90
70076;DHT22;63241;51.056;3.698;2023-01-09T22:49:51;6.10;99.90
70076;DHT22;63241;51.056;3.698;2023-01-09T22:52:19;6.20;99.90
70076;DHT22;63241;51.056;3.698;2023-01-09T22:54:48;6.40;99.90
